createdAt,value
2019-05-01T00:01:32.303Z,25.10
2019-05-01T00:04:24.848Z,25.52
2019-05-01T00:06:55.949Z,23.77
2019-05-01T00:09:22.946Z,21.65
2019-05-01T00:11:50.270Z,23.98
2019-05-01T00:14:17.674Z,24.30
2019-05-01T00:16:45.322Z,24.18
2019-05-01T00:19:13.464Z,22.55
2019-05-01T00:21:40.613Z,22.37
2019-05-01T00:24:08.211Z,20.95
2019-05-01T00:26:35.324Z,21.25
2019-05-01T00:29:02.502Z,20.65
2019-05-01T00:31:30.504Z,20.25
2019-05-01T00:33:57.494Z,19.75
2019-05-01T00:36:24.570Z,17.02
2019-05-01T00:38:52.004Z,16.37
2019-05-01T00:41:19.559Z,17.57
2019-05-01T00:43:46.599Z,16.60
2019-05-01T00:46:13.618Z,18.20
2019-05-01T00:48:40.562Z,16.85
2019-05-01T00:51:07.895Z,17.52
2019-05-01T00:53:34.846Z,17.00
2019-05-01T00:56:10.186Z,17.73
2019-05-01T00:59:02.848Z,17.32
2019-05-01T01:01:55.827Z,17.62
2019-05-01T01:04:22.983Z,18.55
2019-05-01T01:06:50.296Z,17.60
2019-05-01T01:09:17.260Z,17.52
2019-05-01T01:11:44.327Z,19.05
2019-05-01T01:14:11.332Z,17.65
2019-05-01T01:16:38.295Z,18.92
2019-05-01T01:19:05.490Z,17.92
2019-05-01T01:21:32.740Z,18.27
2019-05-01T01:24:01.118Z,19.10
2019-05-01T01:26:28.343Z,20.10
2019-05-01T01:28:55.311Z,20.05
2019-05-01T01:31:22.637Z,20.68
2019-05-01T01:33:49.729Z,20.37
2019-05-01T01:36:16.690Z,20.40
2019-05-01T01:38:43.747Z,21.45
2019-05-01T01:41:11.006Z,20.23
2019-05-01T01:43:48.993Z,20.48
2019-05-01T01:46:18.028Z,19.27
2019-05-01T01:48:45.491Z,18.50
2019-05-01T01:51:12.666Z,18.55
2019-05-01T01:53:40.054Z,19.73
2019-05-01T01:56:07.038Z,18.37
2019-05-01T01:58:34.830Z,17.55
2019-05-01T02:01:27.912Z,17.40
2019-05-01T02:04:00.755Z,17.35
2019-05-01T02:06:28.035Z,17.85
2019-05-01T02:08:56.561Z,17.05
2019-05-01T02:11:24.611Z,17.55
2019-05-01T02:13:54.621Z,17.17
2019-05-01T02:16:21.670Z,16.37
2019-05-01T02:18:48.816Z,16.85
2019-05-01T02:21:16.028Z,17.02
2019-05-01T02:23:43.446Z,14.87
2019-05-01T02:26:12.533Z,15.32
2019-05-01T02:28:46.435Z,16.55
2019-05-01T02:31:33.281Z,16.20
2019-05-01T02:34:02.173Z,15.63
2019-05-01T02:36:30.357Z,14.73
2019-05-01T02:38:58.998Z,16.30
2019-05-01T02:41:31.561Z,14.68
2019-05-01T02:44:06.548Z,15.90
2019-05-01T02:46:35.404Z,15.05
2019-05-01T02:49:07.061Z,13.72
2019-05-01T02:51:37.774Z,14.23
2019-05-01T02:54:05.496Z,13.50
2019-05-01T02:56:39.367Z,13.50
2019-05-01T02:59:08.339Z,13.83
2019-05-01T03:01:46.500Z,13.58
2019-05-01T03:04:07.859Z,13.65
2019-05-01T03:06:36.298Z,13.35
2019-05-01T03:09:06.959Z,13.10
2019-05-01T03:11:36.755Z,13.28
2019-05-01T03:14:04.180Z,12.47
2019-05-01T03:16:33.962Z,13.38
2019-05-01T03:19:05.282Z,13.83
2019-05-01T03:21:43.583Z,13.10
2019-05-01T03:24:14.215Z,12.88
2019-05-01T03:26:42.059Z,13.95
2019-05-01T03:29:09.298Z,13.28
2019-05-01T03:31:36.577Z,13.60
2019-05-01T03:34:03.733Z,13.18
2019-05-01T03:36:31.636Z,13.38
2019-05-01T03:38:59.229Z,12.88
2019-05-01T03:41:26.480Z,13.03
2019-05-01T03:43:54.266Z,13.50
2019-05-01T03:46:21.539Z,13.60
2019-05-01T03:48:49.600Z,13.95
2019-05-01T03:51:17.017Z,13.40
2019-05-01T03:53:44.929Z,13.58
2019-05-01T03:56:12.500Z,13.22
2019-05-01T03:58:39.950Z,13.35
2019-05-01T04:01:20.155Z,14.28
2019-05-01T04:03:53.073Z,13.88
2019-05-01T04:06:20.541Z,13.28
2019-05-01T04:08:48.739Z,13.32
2019-05-01T04:11:15.961Z,13.68
2019-05-01T04:13:43.192Z,13.75
2019-05-01T04:16:10.265Z,12.98
2019-05-01T04:18:38.116Z,10.90
2019-05-01T04:21:07.855Z,12.35
2019-05-01T04:23:36.436Z,11.88
2019-05-01T04:26:03.859Z,12.25
2019-05-01T04:28:50.815Z,12.45
2019-05-01T04:31:25.393Z,12.35
2019-05-01T04:33:54.435Z,12.95
2019-05-01T04:36:27.113Z,12.50
2019-05-01T04:38:54.470Z,12.95
2019-05-01T04:41:21.508Z,13.22
2019-05-01T04:43:48.803Z,12.82
2019-05-01T04:46:15.995Z,13.65
2019-05-01T04:48:43.423Z,12.13
2019-05-01T04:51:10.725Z,12.80
2019-05-01T04:53:38.199Z,11.97
2019-05-01T04:56:05.706Z,11.63
2019-05-01T04:58:33.296Z,11.78
2019-05-01T05:01:00.594Z,10.65
2019-05-01T05:03:28.139Z,11.65
2019-05-01T05:05:55.499Z,10.13
2019-05-01T05:08:22.686Z,10.55
2019-05-01T05:10:51.408Z,10.45
2019-05-01T05:13:26.824Z,11.10
2019-05-01T05:16:16.733Z,11.83
2019-05-01T05:18:44.586Z,10.72
2019-05-01T05:21:11.864Z,9.90
2019-05-01T05:23:39.757Z,10.98
2019-05-01T05:26:07.421Z,10.00
2019-05-01T05:28:35.208Z,9.43
2019-05-01T05:31:02.917Z,10.03
2019-05-01T05:33:32.562Z,11.55
2019-05-01T05:36:01.530Z,9.15
2019-05-01T05:38:37.819Z,9.50
2019-05-01T05:41:05.390Z,8.73
2019-05-01T05:43:32.558Z,8.85
2019-05-01T05:46:00.217Z,9.33
2019-05-01T05:48:27.175Z,9.15
2019-05-01T05:51:16.492Z,8.15
2019-05-01T05:53:46.854Z,9.55
2019-05-01T05:56:19.923Z,7.87
2019-05-01T05:58:52.999Z,8.83
2019-05-01T06:01:42.225Z,8.18
2019-05-01T06:04:35.350Z,7.80
2019-05-01T06:07:24.351Z,8.23
2019-05-01T06:10:02.590Z,8.20
2019-05-01T06:12:52.814Z,10.23
2019-05-01T06:15:41.282Z,7.72
2019-05-01T06:18:15.035Z,6.97
2019-05-01T06:20:57.246Z,7.47
2019-05-01T06:23:34.152Z,6.45
2019-05-01T06:26:21.644Z,5.65
2019-05-01T06:28:49.588Z,5.70
2019-05-01T06:31:23.111Z,5.72
2019-05-01T06:33:48.577Z,5.80
2019-05-01T06:36:16.910Z,6.08
2019-05-01T06:38:44.980Z,5.85
2019-05-01T06:41:14.012Z,6.17
2019-05-01T06:44:02.214Z,6.20
2019-05-01T06:46:58.297Z,6.50
2019-05-01T06:49:31.163Z,5.95
2019-05-01T06:52:01.384Z,6.50
2019-05-01T06:54:30.350Z,6.12
2019-05-01T06:56:58.994Z,6.03
2019-05-01T06:59:31.312Z,5.65
2019-05-01T07:01:58.643Z,6.55
2019-05-01T07:04:32.439Z,6.37
2019-05-01T07:07:01.901Z,4.53
2019-05-01T07:09:29.494Z,5.17
2019-05-01T07:11:58.046Z,5.40
2019-05-01T07:14:25.271Z,5.10
2019-05-01T07:16:53.096Z,5.60
2019-05-01T07:19:41.997Z,5.83
2019-05-01T07:22:09.794Z,5.80
2019-05-01T07:24:37.318Z,5.15
2019-05-01T07:27:04.496Z,6.05
2019-05-01T07:29:33.529Z,6.22
2019-05-01T07:32:01.649Z,6.17
2019-05-01T07:34:29.980Z,6.97
2019-05-01T07:36:57.771Z,7.05
2019-05-01T07:39:25.084Z,7.62
2019-05-01T07:41:54.259Z,9.43
2019-05-01T07:44:34.989Z,7.70
2019-05-01T07:47:09.584Z,7.00
2019-05-01T07:49:54.398Z,6.97
2019-05-01T07:52:22.663Z,6.65
2019-05-01T07:54:50.480Z,6.70
2019-05-01T07:57:17.579Z,6.55
2019-05-01T07:59:46.204Z,5.85
2019-05-01T08:02:13.807Z,5.67
2019-05-01T08:04:40.990Z,5.17
2019-05-01T08:07:08.079Z,5.60
2019-05-01T08:09:35.396Z,4.53
2019-05-01T08:12:02.990Z,4.92
2019-05-01T08:14:29.964Z,5.15
2019-05-01T08:16:57.318Z,4.65
2019-05-01T08:19:50.479Z,4.72
2019-05-01T08:22:32.041Z,4.55
2019-05-01T08:24:59.911Z,4.20
2019-05-01T08:27:56.215Z,4.70
2019-05-01T08:30:48.029Z,4.83
2019-05-01T08:33:49.821Z,4.83
2019-05-01T08:36:17.582Z,4.45
2019-05-01T08:38:44.570Z,5.17
2019-05-01T08:41:12.177Z,5.12
2019-05-01T08:43:39.591Z,4.58
2019-05-01T08:46:30.106Z,4.65
2019-05-01T08:49:12.587Z,3.75
2019-05-01T08:51:40.050Z,4.42
2019-05-01T08:54:07.194Z,3.83
2019-05-01T08:56:34.221Z,4.65
2019-05-01T08:59:02.498Z,4.55
2019-05-01T09:01:29.727Z,4.17
2019-05-01T09:03:56.888Z,4.65
2019-05-01T09:06:34.257Z,4.53
2019-05-01T09:08:53.077Z,4.22
2019-05-01T09:11:21.325Z,4.28
2019-05-01T09:13:54.592Z,4.25
2019-05-01T09:16:23.360Z,3.85
2019-05-01T09:18:49.527Z,4.17
2019-05-01T09:21:16.635Z,4.75
2019-05-01T09:23:46.309Z,4.22
2019-05-01T09:26:21.980Z,4.22
2019-05-01T09:28:54.979Z,4.20
2019-05-01T09:31:23.601Z,5.03
2019-05-01T09:33:51.050Z,4.47
2019-05-01T09:36:18.611Z,3.85
2019-05-01T09:38:49.849Z,4.10
2019-05-01T09:41:15.903Z,4.33
2019-05-01T09:43:43.560Z,4.60
2019-05-01T09:46:10.718Z,5.25
2019-05-01T09:48:38.031Z,5.00
2019-05-01T09:51:27.699Z,4.92
2019-05-01T09:54:18.779Z,4.75
2019-05-01T09:56:48.924Z,4.83
2019-05-01T09:59:17.309Z,5.45
2019-05-01T10:01:45.631Z,4.92
2019-05-01T10:04:13.007Z,7.22
2019-05-01T10:06:40.016Z,5.40
2019-05-01T10:09:07.678Z,5.25
2019-05-01T10:11:40.779Z,5.65
2019-05-01T10:14:05.996Z,5.70
2019-05-01T10:16:33.453Z,7.72
2019-05-01T10:19:00.787Z,6.35
2019-05-01T10:21:28.955Z,6.78
2019-05-01T10:23:56.207Z,6.45
2019-05-01T10:26:25.492Z,5.83
2019-05-01T10:29:05.073Z,6.00
2019-05-01T10:31:50.565Z,5.85
2019-05-01T10:34:26.819Z,5.95
2019-05-01T10:36:55.775Z,6.70
2019-05-01T10:39:23.473Z,5.47
2019-05-01T10:41:50.717Z,5.62
2019-05-01T10:44:18.608Z,5.45
2019-05-01T10:46:45.915Z,5.40
2019-05-01T10:49:13.242Z,6.05
2019-05-01T10:51:41.740Z,5.47
2019-05-01T10:54:08.899Z,5.25
2019-05-01T10:56:36.003Z,5.55
2019-05-01T10:59:03.350Z,5.37
2019-05-01T11:01:38.689Z,6.65
2019-05-01T11:04:05.907Z,6.03
2019-05-01T11:06:35.276Z,5.87
2019-05-01T11:09:03.892Z,6.00
2019-05-01T11:11:31.043Z,5.58
2019-05-01T11:13:58.113Z,5.78
2019-05-01T11:16:25.179Z,6.12
2019-05-01T11:18:52.191Z,5.60
2019-05-01T11:21:19.455Z,5.47
2019-05-01T11:23:46.506Z,4.80
2019-05-01T11:26:13.691Z,5.33
2019-05-01T11:28:40.685Z,5.33
2019-05-01T11:31:09.654Z,5.22
2019-05-01T11:34:05.129Z,4.95
2019-05-01T11:36:46.310Z,6.03
2019-05-01T11:39:30.785Z,5.22
2019-05-01T11:42:02.736Z,4.90
2019-05-01T11:44:29.716Z,5.00
2019-05-01T11:46:58.058Z,5.08
2019-05-01T11:49:25.573Z,5.08
2019-05-01T11:51:52.774Z,5.20
2019-05-01T11:54:19.923Z,4.85
2019-05-01T11:56:48.095Z,4.85
2019-05-01T11:59:15.638Z,4.83
2019-05-01T12:01:42.929Z,4.45
2019-05-01T12:04:11.529Z,4.17
2019-05-01T12:06:39.302Z,5.10
2019-05-01T12:09:06.713Z,4.37
2019-05-01T12:11:35.955Z,4.85
2019-05-01T12:14:04.174Z,4.85
2019-05-01T12:16:49.374Z,5.12
2019-05-01T12:19:16.723Z,4.40
2019-05-01T12:21:43.703Z,5.28
2019-05-01T12:24:10.915Z,5.30
2019-05-01T12:26:37.898Z,5.17
2019-05-01T12:29:05.402Z,5.12
2019-05-01T12:31:32.552Z,4.85
2019-05-01T12:33:59.717Z,4.58
2019-05-01T12:36:36.001Z,5.75
2019-05-01T12:38:55.879Z,5.35
2019-05-01T12:41:34.991Z,5.45
2019-05-01T12:44:01.989Z,4.97
2019-05-01T12:46:44.666Z,5.58
2019-05-01T12:49:12.086Z,5.22
2019-05-01T12:51:40.339Z,4.90
2019-05-01T12:54:20.672Z,5.58
2019-05-01T12:56:52.368Z,5.03
2019-05-01T12:59:19.627Z,5.17
2019-05-01T13:01:46.594Z,5.62
2019-05-01T13:04:13.616Z,5.25
2019-05-01T13:06:49.143Z,5.37
2019-05-01T13:09:10.050Z,5.60
2019-05-01T13:11:37.192Z,5.75
2019-05-01T13:14:04.278Z,6.12
2019-05-01T13:16:32.580Z,5.97
2019-05-01T13:18:59.734Z,5.50
2019-05-01T13:21:27.693Z,6.10
2019-05-01T13:23:54.955Z,6.00
2019-05-01T13:26:39.623Z,5.72
2019-05-01T13:29:21.736Z,6.70
2019-05-01T13:32:08.770Z,5.80
2019-05-01T13:34:36.774Z,5.80
2019-05-01T13:37:04.012Z,5.95
2019-05-01T13:39:31.575Z,6.47
2019-05-01T13:41:58.787Z,6.12
2019-05-01T13:44:26.282Z,6.28
2019-05-01T13:46:53.840Z,6.17
2019-05-01T13:49:21.267Z,6.67
2019-05-01T13:51:48.414Z,6.58
2019-05-01T13:54:16.801Z,7.00
2019-05-01T13:56:43.829Z,7.60
2019-05-01T13:59:13.539Z,7.30
2019-05-01T14:01:40.708Z,8.00
2019-05-01T14:04:09.076Z,7.37
2019-05-01T14:06:36.405Z,7.70
2019-05-01T14:09:05.839Z,8.35
2019-05-01T14:11:35.223Z,8.18
2019-05-01T14:14:02.547Z,8.75
2019-05-01T14:16:29.822Z,9.35
2019-05-01T14:18:57.171Z,11.15
2019-05-01T14:21:37.580Z,8.15
2019-05-01T14:24:26.363Z,9.45
2019-05-01T14:26:53.519Z,9.70
2019-05-01T14:29:20.571Z,9.23
2019-05-01T14:31:47.902Z,9.05
2019-05-01T14:34:15.058Z,8.63
2019-05-01T14:36:42.201Z,9.45
2019-05-01T14:39:09.514Z,9.50
2019-05-01T14:41:37.178Z,9.43
2019-05-01T14:44:04.367Z,9.50
2019-05-01T14:46:31.517Z,10.45
2019-05-01T14:48:58.590Z,15.72
2019-05-01T14:51:25.882Z,11.95
2019-05-01T14:53:53.251Z,8.63
2019-05-01T14:56:20.391Z,8.70
2019-05-01T14:58:47.336Z,8.88
2019-05-01T15:01:14.820Z,8.58
2019-05-01T15:03:43.180Z,8.88
2019-05-01T15:06:10.694Z,7.80
2019-05-01T15:08:38.915Z,8.58
2019-05-01T15:11:09.199Z,9.20
2019-05-01T15:13:45.464Z,8.63
2019-05-01T15:16:36.151Z,8.70
2019-05-01T15:19:06.433Z,9.55
2019-05-01T15:21:33.962Z,8.20
2019-05-01T15:24:02.801Z,11.83
2019-05-01T15:26:30.845Z,9.58
2019-05-01T15:28:58.011Z,9.98
2019-05-01T15:31:26.647Z,9.58
2019-05-01T15:33:54.192Z,9.43
2019-05-01T15:36:21.639Z,8.05
2019-05-01T15:38:48.705Z,6.72
2019-05-01T15:41:35.875Z,8.35
2019-05-01T15:44:17.488Z,7.87
2019-05-01T15:46:45.389Z,7.75
2019-05-01T15:49:12.874Z,7.90
2019-05-01T15:51:40.033Z,7.67
2019-05-01T15:54:08.135Z,6.92
2019-05-01T15:56:35.494Z,7.25
2019-05-01T15:59:02.948Z,6.85
2019-05-01T16:01:30.636Z,8.08
2019-05-01T16:03:57.658Z,6.90
2019-05-01T16:06:24.805Z,7.65
2019-05-01T16:08:51.949Z,8.23
2019-05-01T16:11:36.463Z,7.05
2019-05-01T16:14:03.711Z,7.70
2019-05-01T16:16:31.190Z,7.90
2019-05-01T16:19:00.170Z,8.15
2019-05-01T16:21:27.398Z,7.70
2019-05-01T16:23:54.579Z,7.87
2019-05-01T16:26:22.215Z,8.30
2019-05-01T16:28:49.453Z,8.58
2019-05-01T16:31:16.703Z,7.53
2019-05-01T16:33:44.203Z,8.50
2019-05-01T16:36:12.003Z,8.00
2019-05-01T16:38:59.490Z,7.30
2019-05-01T16:41:27.693Z,8.33
2019-05-01T16:43:54.866Z,8.50
2019-05-01T16:46:21.818Z,8.83
2019-05-01T16:48:49.204Z,8.30
2019-05-01T16:51:16.349Z,9.55
2019-05-01T16:53:43.340Z,7.97
2019-05-01T16:56:10.667Z,9.53
2019-05-01T16:58:38.246Z,9.28
2019-05-01T17:01:25.631Z,9.30
2019-05-01T17:04:04.003Z,9.88
2019-05-01T17:06:37.010Z,9.28
2019-05-01T17:09:27.619Z,9.78
2019-05-01T17:11:54.624Z,8.68
2019-05-01T17:14:21.711Z,9.68
2019-05-01T17:16:49.069Z,8.90
2019-05-01T17:19:16.633Z,9.85
2019-05-01T17:21:43.999Z,9.48
2019-05-01T17:24:10.987Z,9.75
2019-05-01T17:26:38.056Z,9.48
2019-05-01T17:29:05.391Z,9.38
2019-05-01T17:31:32.963Z,9.23
2019-05-01T17:34:00.802Z,9.98
2019-05-01T17:36:27.939Z,9.63
2019-05-01T17:38:55.367Z,8.95
2019-05-01T17:41:26.738Z,9.50
2019-05-01T17:43:52.017Z,8.90
2019-05-01T17:46:19.173Z,10.00
2019-05-01T17:48:46.398Z,9.85
2019-05-01T17:51:13.387Z,9.85
2019-05-01T17:53:40.516Z,9.58
2019-05-01T17:56:10.025Z,9.30
2019-05-01T17:58:38.011Z,10.05
2019-05-01T18:01:17.282Z,10.23
2019-05-01T18:04:01.400Z,8.70
2019-05-01T18:06:33.065Z,10.65
2019-05-01T18:09:03.275Z,8.58
2019-05-01T18:11:32.083Z,10.20
2019-05-01T18:14:05.641Z,9.15
2019-05-01T18:16:33.062Z,9.23
2019-05-01T18:19:00.209Z,8.88
2019-05-01T18:21:27.397Z,8.75
2019-05-01T18:24:23.251Z,9.73
2019-05-01T18:27:14.623Z,10.70
2019-05-01T18:29:51.840Z,7.83
2019-05-01T18:32:36.639Z,8.60
2019-05-01T18:35:08.862Z,7.35
2019-05-01T18:37:40.510Z,7.83
2019-05-01T18:40:12.319Z,7.92
2019-05-01T18:42:39.513Z,7.87
2019-05-01T18:45:14.229Z,7.47
2019-05-01T18:47:41.235Z,8.20
2019-05-01T18:50:09.743Z,8.98
2019-05-01T18:52:37.458Z,7.87
2019-05-01T18:55:04.851Z,8.48
2019-05-01T18:57:39.199Z,8.10
2019-05-01T19:00:07.639Z,7.12
2019-05-01T19:02:34.964Z,7.40
2019-05-01T19:05:04.118Z,8.40
2019-05-01T19:07:31.292Z,7.62
2019-05-01T19:09:58.693Z,7.42
2019-05-01T19:12:26.079Z,7.40
2019-05-01T19:14:55.207Z,7.47
2019-05-01T19:17:22.511Z,6.42
2019-05-01T19:19:49.995Z,5.97
2019-05-01T19:22:17.209Z,6.53
2019-05-01T19:24:44.471Z,6.53
2019-05-01T19:27:18.988Z,6.85
2019-05-01T19:29:45.093Z,6.10
2019-05-01T19:32:21.356Z,6.33
2019-05-01T19:34:48.759Z,5.78
2019-05-01T19:37:23.952Z,5.78
2019-05-01T19:39:57.759Z,6.47
2019-05-01T19:42:25.143Z,6.50
2019-05-01T19:44:56.276Z,6.25
2019-05-01T19:47:23.418Z,6.75
2019-05-01T19:49:50.707Z,6.65
2019-05-01T19:52:18.160Z,6.92
2019-05-01T19:54:48.145Z,7.30
2019-05-01T19:57:15.295Z,7.20
2019-05-01T19:59:47.032Z,6.70
2019-05-01T20:02:17.180Z,7.60
2019-05-01T20:04:45.282Z,7.35
2019-05-01T20:07:15.712Z,6.97
2019-05-01T20:09:42.389Z,6.33
2019-05-01T20:12:09.807Z,6.45
2019-05-01T20:14:38.048Z,6.42
2019-05-01T20:17:10.143Z,6.87
2019-05-01T20:19:39.175Z,6.75
2019-05-01T20:22:15.536Z,6.62
2019-05-01T20:24:44.305Z,6.45
2019-05-01T20:27:12.655Z,7.47
2019-05-01T20:29:39.660Z,6.83
2019-05-01T20:32:08.086Z,6.75
2019-05-01T20:34:35.227Z,6.85
2019-05-01T20:37:05.547Z,7.25
2019-05-01T20:39:32.672Z,7.15
2019-05-01T20:42:04.031Z,7.40
2019-05-01T20:44:31.224Z,7.47
2019-05-01T20:47:02.421Z,7.20
2019-05-01T20:49:27.652Z,7.75
2019-05-01T20:51:58.417Z,7.37
2019-05-01T20:54:25.756Z,7.47
2019-05-01T20:57:07.775Z,7.37
2019-05-01T20:59:48.146Z,7.85
2019-05-01T21:02:16.742Z,8.08
2019-05-01T21:05:14.906Z,7.47
2019-05-01T21:07:52.180Z,7.85
2019-05-01T21:10:24.965Z,7.10
2019-05-01T21:12:50.464Z,8.28
2019-05-01T21:15:19.930Z,7.17
2019-05-01T21:17:49.424Z,7.65
2019-05-01T21:20:15.673Z,7.70
2019-05-01T21:22:43.539Z,7.33
2019-05-01T21:25:10.711Z,7.45
2019-05-01T21:27:37.818Z,7.75
2019-05-01T21:30:05.212Z,8.08
2019-05-01T21:32:33.933Z,8.05
2019-05-01T21:35:01.204Z,7.40
2019-05-01T21:37:28.340Z,7.75
2019-05-01T21:39:55.557Z,8.53
2019-05-01T21:42:25.848Z,8.23
2019-05-01T21:44:53.290Z,8.00
2019-05-01T21:47:23.532Z,7.08
2019-05-01T21:49:54.832Z,7.67
2019-05-01T21:52:26.649Z,7.62
2019-05-01T21:54:55.290Z,7.65
2019-05-01T21:57:21.600Z,7.97
2019-05-01T21:59:48.861Z,7.42
2019-05-01T22:02:19.714Z,6.80
2019-05-01T22:04:46.934Z,7.20
2019-05-01T22:07:14.444Z,8.10
2019-05-01T22:09:45.730Z,8.90
2019-05-01T22:12:13.136Z,8.25
2019-05-01T22:14:46.591Z,7.58
2019-05-01T22:17:27.422Z,7.47
2019-05-01T22:20:01.295Z,6.17
2019-05-01T22:22:45.801Z,6.50
2019-05-01T22:25:18.279Z,5.87
2019-05-01T22:27:58.691Z,5.70
2019-05-01T22:30:34.115Z,5.72
2019-05-01T22:33:04.628Z,4.97
2019-05-01T22:35:41.357Z,5.12
2019-05-01T22:38:10.748Z,5.95
2019-05-01T22:40:47.725Z,5.45
2019-05-01T22:43:15.192Z,5.60
2019-05-01T22:45:42.319Z,5.33
2019-05-01T22:48:10.142Z,5.62
2019-05-01T22:50:38.825Z,5.33
2019-05-01T22:53:08.021Z,5.53
2019-05-01T22:55:35.216Z,5.10
2019-05-01T22:58:02.731Z,4.65
2019-05-01T23:00:49.830Z,4.97
2019-05-01T23:03:21.499Z,4.75
2019-05-01T23:05:48.603Z,4.37
2019-05-01T23:08:15.596Z,4.85
2019-05-01T23:10:47.050Z,4.50
2019-05-01T23:13:11.880Z,5.00
2019-05-01T23:15:39.074Z,4.12
2019-05-01T23:18:06.281Z,4.78
2019-05-01T23:20:34.694Z,4.53
2019-05-01T23:23:02.461Z,4.90
2019-05-01T23:25:29.531Z,4.67
2019-05-01T23:27:59.652Z,4.85
2019-05-01T23:30:25.527Z,4.47
2019-05-01T23:32:52.509Z,5.28
2019-05-01T23:35:19.813Z,4.78
2019-05-01T23:37:46.911Z,4.42
2019-05-01T23:40:15.568Z,4.80
2019-05-01T23:42:51.532Z,5.05
2019-05-01T23:45:12.623Z,4.65
2019-05-01T23:47:39.894Z,4.65
2019-05-01T23:50:07.674Z,4.90
2019-05-01T23:52:38.617Z,4.87
2019-05-01T23:55:03.813Z,4.25
2019-05-01T23:57:31.142Z,4.47
2019-05-01T23:59:58.959Z,4.78
